Mayo, MD (21106)

4:26 AM EST on December 21, 2014 (GMT -0500)
Beverly Beach | Change Station
CLOSE
Current Station
Personal Weather Station
Location: Edgewater, MD
Elevation: 7 ft
Nearby Weather Stations

Elev 7 ft 38.88 °N, 76.51 °W | Updated 3 seconds ago

Overcast
Overcast
33.5 °F
Feels Like 34 °F
N
0.0
Wind Variable Wind from North
Gusts 0.0 mph

Today
High -- | Low -- °F
--% Chance of Precip.
Yesterday
High -- | Low -- °F
Precip. -- in
7:20 AM 4:47 PM
Waning Crescent, 1% visible
Pressure 30.31 in
Visibility 7.0 miles
Clouds Overcast 8000 ft
Windchill 34 °F
Dew Point 30 °F
Humidity 85%
Rainfall 0.00 in
Snow Depth Not available.
UV 0 out of 12
Pollen .10 out of 12
Air Quality Not available.
Flu Activity Not available.
METAR KNAK 210854Z AUTO 34003KT 7SM OVC080 02/M03 A3030 RMK AO2 SLP262 T00171028 50000

More Conditions Fewer Conditions

Pressure 30.31 in
Visibility 7.0 miles
Clouds Overcast 8000 ft
Windchill 34 °F
Dew Point 30 °F
Humidity 85%
Rainfall 0.00 in
Snow Depth Not available.
UV 0 out of 12
Pollen .10 out of 12
Air Quality Not available.
Flu Activity Not available.
METAR KNAK 210854Z AUTO 34003KT 7SM OVC080 02/M03 A3030 RMK AO2 SLP262 T00171028 50000

More Conditions Fewer Conditions

10-Day Weather Forecast

Almanac

Astronomy

Dec. 21, 2014 Rise Set
Actual Time
Civil Twilight
Nautical Twilight
Astronomical Twilight
Moon
Length of Visible Light
Length of Day
Tomorrow will be .
, % of the Moon is Illuminated

Today's Extremes

State Highs State Lows

Community

WunderPhotos

Upload Photos

1,779,364 photos uploaded!

WunderBlogs® & News

Nearby

Air Quality

  Air Quality AQ Index Pollutant
Not available.

Snow Depth

Station Depth Elevation

Earthquake Activity

City Distance Mag. Time & Date
Minimum magnitude displayed is 2.5.

Coastal Water Temperatures

Place Temperature

Nearby Weather Stations